Time;durP1;ratioP1;P1;durP2;ratioP2;P2;SDS_P1;SDS_P2;PMS_P1;PMS_P2;Temp;Humidity;BMP_temperature;BMP_pressure;BME280_temperature;BME280_humidity;BME280_pressure;Samples;Min_cycle;Max_cycle;Signal;HPM_P1;HPM_P2
2022/11/07 00:00:15;;;;;;;;;;;24.00;36.20;;;;;;486207;245;1198;-74
2022/11/07 00:02:17;;;;;;;;;;;24.10;36.10;;;;;;492194;242;1580;-74
2022/11/07 00:04:18;;;;;;;;;;;24.10;36.10;;;;;;492235;242;1213;-74
2022/11/07 00:06:19;;;;;;;;;;;24.10;36.10;;;;;;492172;242;1228;-74
2022/11/07 00:08:30;;;;;;;;;;;24.10;36.10;;;;;;492259;242;1242;-74
2022/11/07 00:10:23;;;;;;;;;;;24.10;36.10;;;;;;486163;243;1937;-74
2022/11/07 00:12:24;;;;;;;;;;;24.00;36.30;;;;;;492194;242;2184;-74
2022/11/07 00:14:26;;;;;;;;;;;24.00;36.10;;;;;;492271;242;1546;-74
2022/11/07 00:16:28;;;;;;;;;;;24.00;36.10;;;;;;492340;242;1327;-74
2022/11/07 00:18:28;;;;;;;;;;;24.10;36.00;;;;;;492187;242;1953;-74
2022/11/07 00:20:30;;;;;;;;;;;24.10;36.40;;;;;;486234;245;1249;-74
2022/11/07 00:22:31;;;;;;;;;;;24.10;36.30;;;;;;492237;242;1453;-74
2022/11/07 00:24:32;;;;;;;;;;;24.10;36.20;;;;;;486288;245;1237;-74
2022/11/07 00:26:34;;;;;;;;;;;24.10;36.00;;;;;;492238;242;1321;-74
2022/11/07 00:28:35;;;;;;;;;;;24.10;36.00;;;;;;486201;245;1353;-74
2022/11/07 00:30:36;;;;;;;;;;;24.10;36.10;;;;;;492214;242;1213;-74
2022/11/07 00:32:38;;;;;;;;;;;24.10;36.40;;;;;;486188;245;2151;-74
2022/11/07 00:34:39;;;;;;;;;;;24.10;36.40;;;;;;492291;242;1195;-74
2022/11/07 00:36:40;;;;;;;;;;;24.10;36.50;;;;;;492271;242;1241;-74
2022/11/07 00:38:41;;;;;;;;;;;24.10;36.40;;;;;;492201;242;1199;-74
2022/11/07 00:40:43;;;;;;;;;;;24.10;36.30;;;;;;486215;245;1372;-74
2022/11/07 00:42:44;;;;;;;;;;;24.00;36.20;;;;;;492225;242;1192;-74
2022/11/07 00:44:45;;;;;;;;;;;24.10;36.30;;;;;;486287;245;1258;-74
2022/11/07 00:46:47;;;;;;;;;;;24.00;36.20;;;;;;492211;242;1337;-74
2022/11/07 00:48:48;;;;;;;;;;;24.00;36.30;;;;;;492282;242;1196;-75
2022/11/07 00:50:49;;;;;;;;;;;24.00;36.40;;;;;;492307;242;1323;-74
2022/11/07 00:52:51;;;;;;;;;;;24.00;36.30;;;;;;486293;245;2156;-74
2022/11/07 00:54:52;;;;;;;;;;;24.00;36.20;;;;;;492216;242;1235;-74
2022/11/07 00:56:53;;;;;;;;;;;24.10;36.10;;;;;;492235;242;1190;-75
2022/11/07 00:58:55;;;;;;;;;;;24.10;36.20;;;;;;492307;242;1192;-74
2022/11/07 01:00:56;;;;;;;;;;;24.00;36.20;;;;;;486263;245;1376;-74
2022/11/07 01:05:18;;;;;;;;;;;24.10;36.20;;;;;;487933;242;1493;-74
2022/11/07 01:07:19;;;;;;;;;;;24.10;36.20;;;;;;492281;242;1214;-74
2022/11/07 01:09:20;;;;;;;;;;;24.10;36.50;;;;;;492251;242;1302;-74
2022/11/07 01:11:22;;;;;;;;;;;24.00;36.20;;;;;;492312;242;1294;-74
2022/11/07 01:13:23;;;;;;;;;;;24.00;36.20;;;;;;492235;242;2160;-74
2022/11/07 01:15:24;;;;;;;;;;;24.00;36.60;;;;;;486348;245;1201;-74
2022/11/07 01:17:26;;;;;;;;;;;24.00;36.30;;;;;;492243;242;1187;-74
2022/11/07 01:19:27;;;;;;;;;;;24.00;36.50;;;;;;492203;242;1257;-74
2022/11/07 01:21:28;;;;;;;;;;;24.00;36.10;;;;;;486310;245;1334;-74
2022/11/07 01:23:30;;;;;;;;;;;24.00;36.10;;;;;;492218;242;1302;-75
2022/11/07 01:25:31;;;;;;;;;;;24.10;36.00;;;;;;486245;245;1214;-74
2022/11/07 01:27:32;;;;;;;;;;;24.00;36.40;;;;;;492221;242;1304;-74
2022/11/07 01:29:34;;;;;;;;;;;24.00;36.40;;;;;;486184;245;1192;-74
2022/11/07 01:31:35;;;;;;;;;;;24.00;36.30;;;;;;492241;242;1289;-75
2022/11/07 01:33:36;;;;;;;;;;;24.00;36.30;;;;;;486235;245;2186;-74
2022/11/07 01:35:38;;;;;;;;;;;24.00;36.60;;;;;;492190;242;1345;-74
2022/11/07 01:37:39;;;;;;;;;;;24.00;36.20;;;;;;486210;245;1201;-74
2022/11/07 01:39:40;;;;;;;;;;;24.00;36.30;;;;;;492151;242;1307;-74
2022/11/07 01:41:42;;;;;;;;;;;24.00;36.50;;;;;;486222;245;1379;-74
2022/11/07 01:43:43;;;;;;;;;;;24.00;36.30;;;;;;492201;242;1200;-74
2022/11/07 01:45:45;;;;;;;;;;;24.00;36.20;;;;;;492245;242;1625;-74
2022/11/07 01:47:46;;;;;;;;;;;24.00;36.40;;;;;;486191;243;1189;-74
2022/11/07 01:49:47;;;;;;;;;;;24.00;36.80;;;;;;492272;242;1239;-74
2022/11/07 01:51:48;;;;;;;;;;;24.00;36.50;;;;;;486226;245;1223;-74
2022/11/07 01:53:50;;;;;;;;;;;24.00;36.40;;;;;;492162;242;2184;-74
2022/11/07 01:55:51;;;;;;;;;;;24.00;36.40;;;;;;486135;245;1251;-74
2022/11/07 01:57:52;;;;;;;;;;;24.00;36.40;;;;;;492299;242;1206;-74
2022/11/07 01:59:54;;;;;;;;;;;24.00;36.30;;;;;;492239;242;1204;-74
2022/11/07 02:01:55;;;;;;;;;;;24.00;36.40;;;;;;486242;245;1156;-75
2022/11/07 02:03:56;;;;;;;;;;;24.00;36.40;;;;;;492342;242;1237;-74
2022/11/07 02:05:58;;;;;;;;;;;24.00;36.30;;;;;;492271;242;1169;-74
2022/11/07 02:07:59;;;;;;;;;;;24.00;36.30;;;;;;486314;245;1236;-74
2022/11/07 02:10:00;;;;;;;;;;;24.00;36.30;;;;;;492273;242;1239;-74
2022/11/07 02:12:02;;;;;;;;;;;24.00;36.60;;;;;;486320;245;2192;-74
2022/11/07 02:14:03;;;;;;;;;;;24.00;36.50;;;;;;492306;242;1146;-74
2022/11/07 02:16:04;;;;;;;;;;;24.00;36.60;;;;;;492371;242;1235;-74
2022/11/07 02:18:06;;;;;;;;;;;24.00;36.50;;;;;;486277;245;1292;-74
2022/11/07 02:20:07;;;;;;;;;;;24.00;36.40;;;;;;492302;242;1197;-74
2022/11/07 02:22:08;;;;;;;;;;;24.00;36.40;;;;;;492408;242;1331;-74
2022/11/07 02:24:10;;;;;;;;;;;24.00;36.50;;;;;;486149;245;1247;-74
2022/11/07 02:26:11;;;;;;;;;;;24.00;36.40;;;;;;492357;242;1327;-74
2022/11/07 02:28:12;;;;;;;;;;;24.00;36.40;;;;;;486297;245;1191;-74
2022/11/07 02:30:14;;;;;;;;;;;24.00;36.40;;;;;;492286;242;1137;-74
2022/11/07 02:32:15;;;;;;;;;;;24.00;36.40;;;;;;486259;243;2171;-74
2022/11/07 02:34:16;;;;;;;;;;;24.10;36.40;;;;;;492321;242;1192;-74
2022/11/07 02:36:18;;;;;;;;;;;24.00;36.40;;;;;;486293;245;1163;-74
2022/11/07 02:38:19;;;;;;;;;;;24.00;36.50;;;;;;492322;242;1098;-74
2022/11/07 02:40:20;;;;;;;;;;;24.00;36.50;;;;;;492340;242;1229;-74
2022/11/07 02:42:22;;;;;;;;;;;24.00;36.50;;;;;;486342;245;1321;-74
2022/11/07 02:44:23;;;;;;;;;;;24.10;36.40;;;;;;492220;242;1150;-74
2022/11/07 02:46:24;;;;;;;;;;;24.10;36.40;;;;;;486259;245;1236;-74
2022/11/07 02:48:25;;;;;;;;;;;24.10;36.40;;;;;;492309;242;1320;-75
2022/11/07 02:50:27;;;;;;;;;;;24.00;36.30;;;;;;492311;242;1208;-75
2022/11/07 02:52:28;;;;;;;;;;;24.10;36.40;;;;;;486313;245;2182;-74
2022/11/07 02:54:29;;;;;;;;;;;24.10;36.40;;;;;;492214;242;1125;-75
2022/11/07 02:56:31;;;;;;;;;;;24.00;36.40;;;;;;486291;245;1235;-74
2022/11/07 02:58:32;;;;;;;;;;;24.10;36.40;;;;;;492234;242;1223;-74
2022/11/07 03:00:33;;;;;;;;;;;24.00;36.40;;;;;;486289;245;1189;-74
2022/11/07 03:02:35;;;;;;;;;;;24.00;36.50;;;;;;492195;242;1174;-74
2022/11/07 03:04:36;;;;;;;;;;;24.00;36.60;;;;;;486219;245;1216;-74
2022/11/07 03:06:37;;;;;;;;;;;23.90;36.60;;;;;;492309;242;1206;-74
2022/11/07 03:08:39;;;;;;;;;;;24.00;36.50;;;;;;486232;245;1221;-74
2022/11/07 03:10:40;;;;;;;;;;;24.00;36.60;;;;;;492171;242;1188;-74
2022/11/07 03:12:41;;;;;;;;;;;24.00;36.50;;;;;;486249;245;2171;-74
2022/11/07 03:14:43;;;;;;;;;;;24.00;36.60;;;;;;492300;242;1191;-74
2022/11/07 03:16:44;;;;;;;;;;;24.00;36.70;;;;;;486275;245;1192;-74
2022/11/07 03:18:45;;;;;;;;;;;24.00;36.60;;;;;;492329;242;1237;-75
2022/11/07 03:20:47;;;;;;;;;;;24.00;36.60;;;;;;486287;242;1427;-74
2022/11/07 03:22:48;;;;;;;;;;;24.00;36.50;;;;;;492225;242;1294;-74
2022/11/07 03:24:49;;;;;;;;;;;24.00;36.50;;;;;;492241;242;1253;-74
2022/11/07 03:26:51;;;;;;;;;;;24.00;36.60;;;;;;492238;242;1211;-74
2022/11/07 03:28:52;;;;;;;;;;;24.00;36.50;;;;;;486282;245;1301;-74
2022/11/07 03:30:53;;;;;;;;;;;24.00;36.60;;;;;;492221;242;1165;-74
2022/11/07 03:32:55;;;;;;;;;;;24.10;36.50;;;;;;486304;245;2245;-74
2022/11/07 03:34:56;;;;;;;;;;;24.00;36.40;;;;;;492333;242;1142;-74
2022/11/07 03:36:57;;;;;;;;;;;24.00;36.40;;;;;;492261;242;1178;-75
2022/11/07 03:38:59;;;;;;;;;;;24.00;36.40;;;;;;492377;242;1295;-74
2022/11/07 03:41:00;;;;;;;;;;;23.90;36.50;;;;;;486308;245;1225;-74
2022/11/07 03:43:01;;;;;;;;;;;23.90;36.60;;;;;;492285;242;1201;-74
2022/11/07 03:45:03;;;;;;;;;;;24.00;36.60;;;;;;492259;242;1225;-74
2022/11/07 03:47:04;;;;;;;;;;;24.00;36.60;;;;;;492276;242;1210;-74
2022/11/07 03:49:05;;;;;;;;;;;23.90;36.60;;;;;;486303;245;1054;-74
2022/11/07 03:51:07;;;;;;;;;;;23.90;36.50;;;;;;492397;242;1192;-75
2022/11/07 03:53:08;;;;;;;;;;;23.90;36.60;;;;;;486263;245;2147;-74
2022/11/07 03:55:09;;;;;;;;;;;24.00;36.70;;;;;;492388;242;1218;-74
2022/11/07 03:57:10;;;;;;;;;;;24.00;36.50;;;;;;492213;242;1365;-74
2022/11/07 03:59:12;;;;;;;;;;;24.00;36.60;;;;;;486205;245;1193;-74
2022/11/07 04:01:13;;;;;;;;;;;24.00;36.50;;;;;;492258;242;1199;-74
2022/11/07 04:03:14;;;;;;;;;;;23.90;36.50;;;;;;492292;242;1208;-74
2022/11/07 04:05:16;;;;;;;;;;;23.90;36.60;;;;;;492262;242;1286;-74
2022/11/07 04:07:17;;;;;;;;;;;24.00;36.60;;;;;;492317;242;1214;-74
2022/11/07 04:09:18;;;;;;;;;;;24.00;36.50;;;;;;486282;245;1213;-74
2022/11/07 04:18:42;;;;;;;;;;;23.90;36.50;;;;;;462085;258;1486;-74
2022/11/07 04:20:43;;;;;;;;;;;24.00;36.50;;;;;;462030;258;1240;-74
2022/11/07 04:22:45;;;;;;;;;;;24.00;36.50;;;;;;462070;258;1331;-74
2022/11/07 04:24:46;;;;;;;;;;;24.00;36.40;;;;;;462050;258;1319;-74
2022/11/07 04:29:06;;;;;;;;;;;24.00;36.40;;;;;;462095;257;1376;-74
2022/11/07 04:31:08;;;;;;;;;;;23.90;36.50;;;;;;462091;258;1292;-74
2022/11/07 04:33:09;;;;;;;;;;;23.90;36.40;;;;;;462127;258;2207;-74
2022/11/07 04:35:10;;;;;;;;;;;23.90;36.40;;;;;;462128;254;1263;-74
2022/11/07 04:37:12;;;;;;;;;;;24.00;36.30;;;;;;462081;258;1264;-74
2022/11/07 04:39:13;;;;;;;;;;;24.00;36.30;;;;;;462164;258;1217;-74
2022/11/07 04:41:14;;;;;;;;;;;23.90;36.30;;;;;;462064;258;1319;-74
2022/11/07 04:43:16;;;;;;;;;;;23.90;36.30;;;;;;462063;258;1263;-74
2022/11/07 04:45:17;;;;;;;;;;;23.90;36.30;;;;;;462116;258;1298;-74
2022/11/07 04:47:18;;;;;;;;;;;24.00;36.20;;;;;;462194;258;1299;-74
2022/11/07 04:49:20;;;;;;;;;;;23.90;36.20;;;;;;462033;258;1312;-74
2022/11/07 04:51:21;;;;;;;;;;;23.90;36.20;;;;;;462042;258;1306;-74
2022/11/07 04:53:22;;;;;;;;;;;24.00;36.30;;;;;;469506;253;2175;-74
2022/11/07 04:55:24;;;;;;;;;;;24.00;36.20;;;;;;476285;242;1386;-74
2022/11/07 04:57:25;;;;;;;;;;;23.90;36.10;;;;;;486183;241;1298;-74
2022/11/07 04:59:26;;;;;;;;;;;23.80;36.30;;;;;;492202;242;1195;-74
2022/11/07 05:01:28;;;;;;;;;;;23.80;36.40;;;;;;492252;242;1171;-74
2022/11/07 05:03:29;;;;;;;;;;;23.80;36.40;;;;;;486280;245;1289;-74
2022/11/07 05:05:30;;;;;;;;;;;23.80;36.30;;;;;;492320;242;1430;-74
2022/11/07 05:07:32;;;;;;;;;;;23.80;36.30;;;;;;486257;245;1163;-74
2022/11/07 05:09:33;;;;;;;;;;;23.90;36.20;;;;;;492184;242;1496;-75
2022/11/07 05:11:35;;;;;;;;;;;24.00;36.10;;;;;;492356;242;1200;-75
2022/11/07 05:13:36;;;;;;;;;;;24.00;36.00;;;;;;492213;242;2149;-75
2022/11/07 05:15:37;;;;;;;;;;;24.00;36.00;;;;;;486359;245;1211;-75
2022/11/07 05:17:39;;;;;;;;;;;24.00;35.90;;;;;;492314;242;1165;-74
2022/11/07 05:19:42;;;;;;;;;;;23.90;35.90;;;;;;486273;245;1218;-74
2022/11/07 05:21:43;;;;;;;;;;;24.00;36.00;;;;;;492211;242;1139;-74
2022/11/07 05:23:44;;;;;;;;;;;24.00;35.90;;;;;;486217;245;1179;-74
2022/11/07 05:25:45;;;;;;;;;;;24.00;35.90;;;;;;492135;242;1194;-74
2022/11/07 05:27:47;;;;;;;;;;;24.00;35.90;;;;;;486182;245;1238;-74
2022/11/07 05:29:48;;;;;;;;;;;24.00;35.90;;;;;;492166;242;1146;-74
2022/11/07 05:31:49;;;;;;;;;;;24.00;35.80;;;;;;486159;245;1223;-74
2022/11/07 05:33:50;;;;;;;;;;;24.00;35.80;;;;;;492262;242;2195;-74
2022/11/07 05:35:52;;;;;;;;;;;24.00;35.80;;;;;;492223;242;1275;-74
2022/11/07 05:37:53;;;;;;;;;;;24.00;35.90;;;;;;492284;242;1182;-74
2022/11/07 05:39:54;;;;;;;;;;;24.00;35.80;;;;;;486162;245;1284;-74
2022/11/07 05:41:56;;;;;;;;;;;23.90;35.90;;;;;;492166;242;1313;-74
2022/11/07 05:43:57;;;;;;;;;;;24.00;35.80;;;;;;492256;242;1594;-74
2022/11/07 05:45:59;;;;;;;;;;;24.00;35.80;;;;;;492124;242;1219;-74
2022/11/07 05:48:00;;;;;;;;;;;24.00;35.80;;;;;;492223;242;1206;-74
2022/11/07 05:50:01;;;;;;;;;;;24.00;35.70;;;;;;492219;242;1346;-74
2022/11/07 05:52:03;;;;;;;;;;;24.00;35.70;;;;;;492235;242;1204;-75
2022/11/07 05:54:04;;;;;;;;;;;24.00;35.70;;;;;;492226;242;2152;-74
2022/11/07 05:56:05;;;;;;;;;;;24.00;35.60;;;;;;486170;245;1224;-74
2022/11/07 05:58:07;;;;;;;;;;;24.00;35.70;;;;;;492225;242;1229;-74
2022/11/07 06:00:08;;;;;;;;;;;23.90;35.60;;;;;;486238;245;1307;-74
2022/11/07 06:02:10;;;;;;;;;;;23.90;35.70;;;;;;492194;242;1240;-74
2022/11/07 06:04:11;;;;;;;;;;;23.90;35.70;;;;;;492142;242;1244;-74
2022/11/07 06:06:12;;;;;;;;;;;23.90;35.70;;;;;;486152;245;1186;-74
2022/11/07 06:08:14;;;;;;;;;;;23.90;35.70;;;;;;492161;242;1281;-74
2022/11/07 06:10:15;;;;;;;;;;;23.90;35.60;;;;;;492171;242;1199;-74
2022/11/07 06:12:16;;;;;;;;;;;23.90;35.70;;;;;;492256;242;1361;-74
2022/11/07 06:14:18;;;;;;;;;;;23.90;35.60;;;;;;492253;242;2205;-74
2022/11/07 06:16:19;;;;;;;;;;;23.80;35.60;;;;;;486197;245;1183;-75
2022/11/07 06:18:20;;;;;;;;;;;23.90;35.60;;;;;;492311;242;1218;-75
2022/11/07 06:20:22;;;;;;;;;;;23.90;35.50;;;;;;486107;245;1544;-74
2022/11/07 06:22:24;;;;;;;;;;;23.90;35.60;;;;;;492033;241;1166;-74
2022/11/07 06:24:25;;;;;;;;;;;23.90;35.50;;;;;;486123;245;1196;-74
2022/11/07 06:26:26;;;;;;;;;;;23.90;35.50;;;;;;491837;242;1179;-74
2022/11/07 06:28:27;;;;;;;;;;;23.90;35.50;;;;;;492026;242;1348;-74
2022/11/07 06:30:29;;;;;;;;;;;23.90;35.50;;;;;;492078;242;1224;-74
2022/11/07 06:32:30;;;;;;;;;;;23.90;35.50;;;;;;486105;243;1305;-74
2022/11/07 06:34:32;;;;;;;;;;;23.90;35.50;;;;;;492087;242;2176;-74
2022/11/07 06:36:33;;;;;;;;;;;23.80;35.50;;;;;;486054;245;1154;-74
2022/11/07 06:38:34;;;;;;;;;;;23.80;35.60;;;;;;492144;242;1228;-74
2022/11/07 06:40:36;;;;;;;;;;;23.80;35.70;;;;;;492062;242;1215;-74
2022/11/07 06:42:37;;;;;;;;;;;23.80;35.50;;;;;;486048;245;1214;-74
2022/11/07 06:44:38;;;;;;;;;;;23.80;35.50;;;;;;492131;242;1236;-74
2022/11/07 06:46:40;;;;;;;;;;;23.70;35.50;;;;;;492144;242;1180;-74
2022/11/07 06:48:41;;;;;;;;;;;23.60;35.80;;;;;;492254;242;1193;-74
2022/11/07 06:50:42;;;;;;;;;;;23.50;35.90;;;;;;492284;242;1378;-74
2022/11/07 06:52:44;;;;;;;;;;;23.60;35.90;;;;;;492126;242;1216;-74
2022/11/07 06:54:45;;;;;;;;;;;23.60;35.80;;;;;;492214;242;2188;-74
2022/11/07 06:56:46;;;;;;;;;;;23.60;35.80;;;;;;492157;242;1238;-74
2022/11/07 06:58:48;;;;;;;;;;;23.60;35.90;;;;;;492181;242;1226;-75
2022/11/07 07:00:49;;;;;;;;;;;23.60;35.80;;;;;;486199;245;1237;-74
2022/11/07 07:02:50;;;;;;;;;;;23.60;35.90;;;;;;492150;242;1649;-74
2022/11/07 07:04:52;;;;;;;;;;;23.60;35.80;;;;;;492099;242;1306;-74
2022/11/07 07:06:53;;;;;;;;;;;23.70;35.80;;;;;;492173;242;1187;-74
2022/11/07 07:08:54;;;;;;;;;;;23.70;35.80;;;;;;492124;242;1262;-74
2022/11/07 07:10:56;;;;;;;;;;;23.80;35.70;;;;;;486090;245;1235;-74
2022/11/07 07:12:57;;;;;;;;;;;23.80;36.80;;;;;;491994;242;1315;-74
2022/11/07 07:14:58;;;;;;;;;;;23.80;36.60;;;;;;492196;242;2176;-74
2022/11/07 07:17:00;;;;;;;;;;;23.90;36.20;;;;;;486031;245;1265;-74
2022/11/07 07:19:01;;;;;;;;;;;23.90;36.30;;;;;;492091;242;1167;-74
2022/11/07 07:21:02;;;;;;;;;;;23.90;36.10;;;;;;486119;245;1110;-74
2022/11/07 07:23:03;;;;;;;;;;;23.90;36.20;;;;;;492004;242;1185;-74
2022/11/07 07:25:05;;;;;;;;;;;23.90;36.20;;;;;;492056;242;1259;-74
2022/11/07 07:27:06;;;;;;;;;;;23.90;36.30;;;;;;491950;242;1186;-74
2022/11/07 07:29:07;;;;;;;;;;;23.90;36.20;;;;;;485991;245;1271;-74
2022/11/07 07:31:09;;;;;;;;;;;23.90;36.30;;;;;;492103;242;1222;-74
2022/11/07 07:33:10;;;;;;;;;;;23.90;36.20;;;;;;492040;242;1152;-74
2022/11/07 07:35:11;;;;;;;;;;;23.90;36.30;;;;;;486113;245;2166;-74
2022/11/07 07:37:13;;;;;;;;;;;23.90;36.50;;;;;;491960;242;1127;-74
2022/11/07 07:39:14;;;;;;;;;;;23.80;36.60;;;;;;492010;242;1132;-74
2022/11/07 07:41:15;;;;;;;;;;;23.90;37.00;;;;;;486037;245;1149;-74
2022/11/07 07:43:17;;;;;;;;;;;23.90;37.00;;;;;;492058;242;1321;-74
2022/11/07 07:45:18;;;;;;;;;;;23.90;37.10;;;;;;491833;242;1223;-74
2022/11/07 07:47:19;;;;;;;;;;;23.90;36.90;;;;;;491800;242;1102;-74
2022/11/07 07:49:21;;;;;;;;;;;23.90;36.70;;;;;;491813;242;1269;-74
2022/11/07 07:51:22;;;;;;;;;;;23.90;36.70;;;;;;491933;242;1161;-74
2022/11/07 07:53:23;;;;;;;;;;;23.90;36.80;;;;;;491900;242;1176;-74
2022/11/07 07:55:25;;;;;;;;;;;23.90;36.80;;;;;;491916;242;2184;-74
2022/11/07 07:57:26;;;;;;;;;;;23.90;37.00;;;;;;491824;242;1250;-74
2022/11/07 07:59:27;;;;;;;;;;;23.80;37.00;;;;;;491877;242;1210;-74
2022/11/07 08:01:29;;;;;;;;;;;23.90;36.90;;;;;;485907;245;1156;-74
2022/11/07 08:03:30;;;;;;;;;;;23.90;36.90;;;;;;491729;242;1189;-74
2022/11/07 08:05:31;;;;;;;;;;;23.90;37.00;;;;;;491938;242;1276;-74
2022/11/07 08:07:32;;;;;;;;;;;24.00;36.80;;;;;;491973;242;1243;-74
2022/11/07 08:09:35;;;;;;;;;;;23.90;36.80;;;;;;491916;242;1295;-74
2022/11/07 08:11:35;;;;;;;;;;;23.90;37.20;;;;;;492042;242;2286;-74
2022/11/07 08:13:37;;;;;;;;;;;23.90;36.80;;;;;;485787;245;1191;-74
2022/11/07 08:15:38;;;;;;;;;;;24.00;37.00;;;;;;491828;242;2195;-74
2022/11/07 08:17:45;;;;;;;;;;;24.00;35.90;;;;;;502350;234;1142;-75
2022/11/07 08:19:46;;;;;;;;;;;23.90;36.80;;;;;;491295;241;1199;-75
2022/11/07 08:21:47;;;;;;;;;;;23.90;36.80;;;;;;491238;240;1192;-75
2022/11/07 08:23:52;;;;;;;;;;;23.90;36.80;;;;;;491225;240;1205;-75
2022/11/07 08:25:50;;;;;;;;;;;23.90;36.80;;;;;;490997;240;1527;-75
2022/11/07 08:27:52;;;;;;;;;;;23.90;36.80;;;;;;491284;240;1269;-75
2022/11/07 08:29:53;;;;;;;;;;;23.90;36.80;;;;;;491267;240;1152;-75
2022/11/07 08:31:54;;;;;;;;;;;23.80;37.30;;;;;;491224;240;1267;-75
2022/11/07 08:33:56;;;;;;;;;;;23.80;37.00;;;;;;491348;240;1198;-75
2022/11/07 08:35:59;;;;;;;;;;;23.80;37.10;;;;;;491479;240;2152;-75
2022/11/07 08:37:58;;;;;;;;;;;23.90;37.10;;;;;;491199;240;1408;-75
2022/11/07 08:40:00;;;;;;;;;;;23.90;37.00;;;;;;491434;240;1227;-73
2022/11/07 08:42:01;;;;;;;;;;;23.90;37.10;;;;;;491241;240;1180;-76
2022/11/07 08:44:02;;;;;;;;;;;24.00;36.90;;;;;;491352;240;1176;-75
2022/11/07 08:46:04;;;;;;;;;;;24.00;36.80;;;;;;491412;240;1102;-75
2022/11/07 08:48:05;;;;;;;;;;;24.00;36.80;;;;;;491198;240;1235;-75
2022/11/07 08:50:06;;;;;;;;;;;24.10;36.70;;;;;;491397;240;1170;-75
2022/11/07 08:52:08;;;;;;;;;;;24.10;36.70;;;;;;491356;240;1172;-75
2022/11/07 08:54:09;;;;;;;;;;;24.10;36.60;;;;;;491286;240;1213;-75
2022/11/07 08:56:10;;;;;;;;;;;24.10;36.50;;;;;;491139;240;2137;-75
2022/11/07 08:58:13;;;;;;;;;;;24.10;36.40;;;;;;491489;240;1137;-75
2022/11/07 09:00:13;;;;;;;;;;;24.20;36.60;;;;;;491283;240;1788;-75
2022/11/07 09:02:14;;;;;;;;;;;24.20;36.50;;;;;;491215;240;1304;-75
2022/11/07 09:04:16;;;;;;;;;;;24.20;36.40;;;;;;491245;240;1352;-75
2022/11/07 09:06:17;;;;;;;;;;;24.20;36.50;;;;;;490973;240;1170;-74
2022/11/07 09:08:18;;;;;;;;;;;24.20;36.50;;;;;;490959;240;1129;-75
2022/11/07 09:10:20;;;;;;;;;;;24.20;36.40;;;;;;491140;240;1205;-75
2022/11/07 09:12:21;;;;;;;;;;;24.10;36.60;;;;;;491142;240;1532;-75
2022/11/07 09:14:22;;;;;;;;;;;24.20;36.50;;;;;;491402;240;1326;-74
2022/11/07 09:16:24;;;;;;;;;;;24.10;36.60;;;;;;491052;240;2141;-74
2022/11/07 09:18:25;;;;;;;;;;;24.10;36.50;;;;;;491230;240;1169;-74
2022/11/07 09:20:26;;;;;;;;;;;24.20;36.50;;;;;;491211;240;1203;-74
2022/11/07 09:22:28;;;;;;;;;;;24.10;36.50;;;;;;491090;240;1189;-74
2022/11/07 09:24:29;;;;;;;;;;;24.10;36.60;;;;;;491012;240;1190;-74
2022/11/07 09:26:30;;;;;;;;;;;24.20;36.50;;;;;;491175;240;1100;-74
2022/11/07 09:28:32;;;;;;;;;;;24.20;36.50;;;;;;491280;240;1135;-74
2022/11/07 09:30:33;;;;;;;;;;;24.10;36.50;;;;;;491311;240;1320;-74
2022/11/07 09:32:34;;;;;;;;;;;24.10;36.50;;;;;;490994;240;1201;-74
2022/11/07 09:34:35;;;;;;;;;;;24.10;36.60;;;;;;491062;240;1180;-74
2022/11/07 09:36:37;;;;;;;;;;;24.10;36.60;;;;;;491084;240;2183;-74
2022/11/07 09:38:38;;;;;;;;;;;24.10;36.60;;;;;;491121;240;1318;-74
2022/11/07 09:40:39;;;;;;;;;;;24.10;36.70;;;;;;491146;240;1089;-74
2022/11/07 09:42:41;;;;;;;;;;;24.10;36.50;;;;;;491051;240;1341;-74
2022/11/07 09:44:42;;;;;;;;;;;24.10;36.60;;;;;;490869;240;1223;-74
2022/11/07 09:46:43;;;;;;;;;;;24.10;36.60;;;;;;490869;240;1342;-74
2022/11/07 09:48:45;;;;;;;;;;;24.10;36.50;;;;;;491147;240;1077;-74
2022/11/07 09:50:48;;;;;;;;;;;24.10;36.60;;;;;;491296;240;1257;-74
2022/11/07 09:52:49;;;;;;;;;;;24.10;36.70;;;;;;491147;240;1240;-74
2022/11/07 09:54:50;;;;;;;;;;;24.20;36.60;;;;;;490916;240;1128;-74
2022/11/07 09:56:52;;;;;;;;;;;24.10;36.50;;;;;;491144;240;2183;-74
2022/11/07 09:58:53;;;;;;;;;;;24.10;36.60;;;;;;490969;240;1301;-74
2022/11/07 10:00:55;;;;;;;;;;;24.10;36.60;;;;;;490940;240;1299;-75
2022/11/07 10:02:56;;;;;;;;;;;24.10;36.60;;;;;;491195;240;1179;-75
2022/11/07 10:04:57;;;;;;;;;;;24.10;36.60;;;;;;491106;240;1192;-74
2022/11/07 10:06:59;;;;;;;;;;;24.10;36.70;;;;;;491080;240;1122;-74
2022/11/07 10:09:00;;;;;;;;;;;24.00;36.70;;;;;;491191;240;1273;-75
2022/11/07 10:11:01;;;;;;;;;;;24.10;36.70;;;;;;491180;240;1230;-75
2022/11/07 10:13:03;;;;;;;;;;;24.10;36.60;;;;;;491211;240;1111;-75
2022/11/07 10:15:04;;;;;;;;;;;24.10;36.70;;;;;;491102;240;1221;-75
2022/11/07 10:17:05;;;;;;;;;;;24.10;36.60;;;;;;491064;240;2205;-75
2022/11/07 10:19:07;;;;;;;;;;;24.20;36.60;;;;;;491201;240;1117;-74
2022/11/07 10:21:08;;;;;;;;;;;24.20;36.70;;;;;;491144;240;1084;-74
2022/11/07 10:23:09;;;;;;;;;;;24.20;36.70;;;;;;491145;240;1192;-74
2022/11/07 10:25:10;;;;;;;;;;;24.20;36.50;;;;;;491201;240;1148;-75
2022/11/07 10:27:12;;;;;;;;;;;24.20;36.60;;;;;;491173;240;1211;-75
2022/11/07 10:29:13;;;;;;;;;;;24.20;36.60;;;;;;491142;240;1048;-75
2022/11/07 10:31:15;;;;;;;;;;;24.20;36.70;;;;;;491177;240;1145;-74
2022/11/07 10:33:16;;;;;;;;;;;24.10;36.80;;;;;;491235;240;1168;-74
2022/11/07 10:35:17;;;;;;;;;;;24.10;36.70;;;;;;491249;240;1119;-74
2022/11/07 10:37:19;;;;;;;;;;;24.10;36.80;;;;;;490569;240;2177;-74
2022/11/07 10:39:20;;;;;;;;;;;24.20;36.90;;;;;;490771;240;1287;-74
2022/11/07 10:41:21;;;;;;;;;;;24.10;36.90;;;;;;490849;240;1252;-74
2022/11/07 10:43:22;;;;;;;;;;;24.10;36.90;;;;;;490996;240;1115;-74
2022/11/07 10:45:24;;;;;;;;;;;24.10;37.00;;;;;;491276;240;1180;-74
2022/11/07 10:47:26;;;;;;;;;;;24.20;36.90;;;;;;491312;240;1426;-74
2022/11/07 10:49:26;;;;;;;;;;;24.10;36.90;;;;;;491381;240;1437;-75
2022/11/07 10:51:28;;;;;;;;;;;24.20;36.90;;;;;;491362;240;1157;-74
2022/11/07 10:53:29;;;;;;;;;;;24.10;36.90;;;;;;491280;240;1149;-74
2022/11/07 10:55:30;;;;;;;;;;;24.10;37.10;;;;;;491235;240;1172;-74
2022/11/07 10:57:34;;;;;;;;;;;24.10;37.00;;;;;;491214;240;2219;-74
2022/11/07 10:59:33;;;;;;;;;;;24.20;37.00;;;;;;491214;240;1367;-75
2022/11/07 11:01:35;;;;;;;;;;;24.20;37.00;;;;;;491192;240;1200;-75
2022/11/07 11:03:36;;;;;;;;;;;24.20;37.00;;;;;;491072;240;1235;-75
2022/11/07 11:05:37;;;;;;;;;;;24.10;37.00;;;;;;491132;240;1160;-75
2022/11/07 11:07:39;;;;;;;;;;;24.30;37.00;;;;;;491191;240;1208;-75
2022/11/07 11:09:40;;;;;;;;;;;24.10;37.00;;;;;;491211;240;1245;-74
2022/11/07 11:11:43;;;;;;;;;;;24.20;37.00;;;;;;491201;240;1185;-75
2022/11/07 11:13:42;;;;;;;;;;;24.20;36.90;;;;;;491228;240;1320;-75
2022/11/07 11:15:44;;;;;;;;;;;24.20;36.90;;;;;;491069;240;1198;-74
2022/11/07 11:17:46;;;;;;;;;;;24.10;37.00;;;;;;491017;240;2176;-74
2022/11/07 11:19:47;;;;;;;;;;;24.20;36.90;;;;;;490868;240;1176;-75
2022/11/07 11:21:48;;;;;;;;;;;24.30;37.00;;;;;;491025;240;1121;-75
2022/11/07 11:23:49;;;;;;;;;;;24.20;36.80;;;;;;491202;240;1085;-74
2022/11/07 11:25:51;;;;;;;;;;;24.20;36.80;;;;;;491057;240;1534;-75
2022/11/07 11:27:52;;;;;;;;;;;24.30;36.80;;;;;;491072;240;1096;-75
2022/11/07 11:29:53;;;;;;;;;;;24.20;36.90;;;;;;490922;240;1148;-75
2022/11/07 11:31:55;;;;;;;;;;;24.30;36.90;;;;;;491017;240;1253;-75
2022/11/07 11:33:56;;;;;;;;;;;24.30;36.80;;;;;;490945;240;1171;-74
2022/11/07 11:35:57;;;;;;;;;;;24.30;36.80;;;;;;491109;240;1180;-74
2022/11/07 11:37:59;;;;;;;;;;;24.30;36.70;;;;;;491079;240;2187;-74
2022/11/07 11:40:01;;;;;;;;;;;24.30;36.70;;;;;;491102;240;1273;-75
2022/11/07 11:42:03;;;;;;;;;;;24.20;36.70;;;;;;490835;240;1170;-74
2022/11/07 11:44:03;;;;;;;;;;;24.30;36.80;;;;;;490997;240;1436;-74
2022/11/07 11:46:04;;;;;;;;;;;24.40;36.90;;;;;;491206;240;1221;-74
2022/11/07 11:48:06;;;;;;;;;;;24.30;36.70;;;;;;490987;240;1148;-74
2022/11/07 11:50:07;;;;;;;;;;;24.30;36.70;;;;;;490951;240;1070;-74
2022/11/07 11:52:08;;;;;;;;;;;24.30;36.80;;;;;;491001;240;1143;-74
2022/11/07 11:54:10;;;;;;;;;;;24.30;36.70;;;;;;490875;240;1114;-74
2022/11/07 11:56:11;;;;;;;;;;;24.30;36.70;;;;;;490714;240;1239;-74
2022/11/07 11:58:12;;;;;;;;;;;24.30;36.70;;;;;;490578;240;2188;-74
2022/11/07 12:00:14;;;;;;;;;;;24.30;36.70;;;;;;490914;240;1145;-74
2022/11/07 12:02:15;;;;;;;;;;;24.30;36.70;;;;;;491151;240;1169;-75
2022/11/07 12:04:16;;;;;;;;;;;24.30;36.80;;;;;;491104;240;1259;-74
2022/11/07 12:06:18;;;;;;;;;;;24.30;36.70;;;;;;490511;240;1146;-74
2022/11/07 12:08:19;;;;;;;;;;;24.40;36.60;;;;;;490762;240;1531;-74